KMSN/MSN METAR and TAF weather

Enter ICAO airport designator
Station Type Date Time Source
KMSN METAR 2020/07/12 03:53 UTC NOAA

KMSN 120353Z 31003KT 10SM FEW045 FEW060 BKN140 BKN250 23/21 A2981 RMK AO2 LTG DSNT SE SLP089 OCNL LTG DSNT S-W LAST T02280206


Station Type Date Time Source
KMSN Decoded METAR 2020/07/12 03:53 UTC NOAA

MADISON DANE COUNTY RGNL, WI, United States (KMSN) 43-08N 89-21W 261M
Jul 11, 2020 - 11:53 PM EDT / 2020.07.12 0353 UTC
Wind: from the NW (310 degrees) at 3 MPH (3 KT):0
Visibility: 10 mile(s):0
Sky conditions: mostly cloudy
Weather: Lightning observed
Temperature: 73.0 F (22.8 C)
Dew Point: 69.1 F (20.6 C)
Relative Humidity: 87%
Pressure (altimeter): 29.81 in. Hg (1009 hPa)
ob: KMSN 120353Z 31003KT 10SM FEW045 FEW060 BKN140 BKN250 23/21 A2981 RMK AO2 LTG DSNT SE SLP089 OCNL LTG DSNT S-W LAST T02280206
cycle: 4

Station Type Date Time Source
KMSN TAF 2020/07/12 03:16 UTC NOAA

TAF
AMD KMSN 120314Z 1203/1224 VRB03KT P6SM FEW060 BKN150
FM121400 03007KT P6SM FEW250
FM121800 36009KT P6SM SCT050

Example: see airport list